sensor_id;sensor_type;location;lat;lon;timestamp;P1;durP1;ratioP1;P2;durP2;ratioP2
79009;SDS011;73031;44.726;37.760;2023-11-21T00:00:29;7.22;;;4.40;;
79009;SDS011;73031;44.726;37.760;2023-11-21T00:01:30;7.05;;;4.35;;
79009;SDS011;73031;44.726;37.760;2023-11-21T00:02:31;7.63;;;4.15;;
79009;SDS011;73031;44.726;37.760;2023-11-21T00:03:32;6.68;;;3.92;;
79009;SDS011;73031;44.726;37.760;2023-11-21T00:04:33;7.18;;;4.10;;
79009;SDS011;73031;44.726;37.760;2023-11-21T00:05:34;7.30;;;4.30;;
79009;SDS011;73031;44.726;37.760;2023-11-21T00:06:35;7.25;;;4.10;;
79009;SDS011;73031;44.726;37.760;2023-11-21T00:07:37;6.50;;;4.22;;
79009;SDS011;73031;44.726;37.760;2023-11-21T00:08:38;6.93;;;4.05;;
79009;SDS011;73031;44.726;37.760;2023-11-21T00:09:39;6.40;;;3.90;;
79009;SDS011;73031;44.726;37.760;2023-11-21T00:10:40;6.90;;;4.22;;
79009;SDS011;73031;44.726;37.760;2023-11-21T00:11:41;6.57;;;4.25;;
79009;SDS011;73031;44.726;37.760;2023-11-21T00:12:42;6.90;;;3.85;;
79009;SDS011;73031;44.726;37.760;2023-11-21T00:13:43;7.10;;;4.38;;
79009;SDS011;73031;44.726;37.760;2023-11-21T00:14:46;7.07;;;4.50;;
79009;SDS011;73031;44.726;37.760;2023-11-21T00:15:47;6.97;;;3.80;;
79009;SDS011;73031;44.726;37.760;2023-11-21T00:16:48;7.82;;;4.38;;
79009;SDS011;73031;44.726;37.760;2023-11-21T00:17:49;7.47;;;4.88;;
79009;SDS011;73031;44.726;37.760;2023-11-21T00:18:50;7.25;;;4.20;;
79009;SDS011;73031;44.726;37.760;2023-11-21T00:19:51;6.45;;;3.92;;
79009;SDS011;73031;44.726;37.760;2023-11-21T00:20:52;5.88;;;3.63;;
79009;SDS011;73031;44.726;37.760;2023-11-21T00:21:53;7.53;;;4.07;;
79009;SDS011;73031;44.726;37.760;2023-11-21T00:22:54;6.65;;;3.40;;
79009;SDS011;73031;44.726;37.760;2023-11-21T00:23:55;7.13;;;3.67;;
79009;SDS011;73031;44.726;37.760;2023-11-21T00:24:56;7.13;;;4.30;;
79009;SDS011;73031;44.726;37.760;2023-11-21T00:25:57;6.63;;;4.45;;
79009;SDS011;73031;44.726;37.760;2023-11-21T00:26:58;6.60;;;3.80;;
79009;SDS011;73031;44.726;37.760;2023-11-21T00:27:59;6.80;;;4.40;;
79009;SDS011;73031;44.726;37.760;2023-11-21T00:29:02;6.88;;;4.13;;
79009;SDS011;73031;44.726;37.760;2023-11-21T00:30:03;6.72;;;4.05;;
79009;SDS011;73031;44.726;37.760;2023-11-21T00:31:07;7.05;;;4.00;;
79009;SDS011;73031;44.726;37.760;2023-11-21T00:32:08;7.28;;;4.50;;
79009;SDS011;73031;44.726;37.760;2023-11-21T00:33:09;7.63;;;4.30;;
79009;SDS011;73031;44.726;37.760;2023-11-21T00:34:13;6.75;;;4.22;;
79009;SDS011;73031;44.726;37.760;2023-11-21T00:35:14;6.30;;;4.07;;
79009;SDS011;73031;44.726;37.760;2023-11-21T00:36:16;7.35;;;4.45;;
79009;SDS011;73031;44.726;37.760;2023-11-21T00:37:17;7.20;;;4.22;;
79009;SDS011;73031;44.726;37.760;2023-11-21T00:38:18;6.10;;;3.53;;
79009;SDS011;73031;44.726;37.760;2023-11-21T00:39:20;7.07;;;4.40;;
79009;SDS011;73031;44.726;37.760;2023-11-21T00:40:21;7.13;;;3.80;;
79009;SDS011;73031;44.726;37.760;2023-11-21T00:41:23;6.22;;;3.70;;
79009;SDS011;73031;44.726;37.760;2023-11-21T00:42:24;6.28;;;4.00;;
79009;SDS011;73031;44.726;37.760;2023-11-21T00:43:25;8.05;;;4.25;;
79009;SDS011;73031;44.726;37.760;2023-11-21T00:44:26;7.90;;;4.38;;
79009;SDS011;73031;44.726;37.760;2023-11-21T00:45:27;6.80;;;4.20;;
79009;SDS011;73031;44.726;37.760;2023-11-21T00:46:28;7.32;;;4.32;;
79009;SDS011;73031;44.726;37.760;2023-11-21T00:47:30;7.07;;;4.20;;
79009;SDS011;73031;44.726;37.760;2023-11-21T00:48:31;6.70;;;3.85;;
79009;SDS011;73031;44.726;37.760;2023-11-21T00:49:32;7.55;;;4.38;;
79009;SDS011;73031;44.726;37.760;2023-11-21T00:50:33;6.72;;;4.40;;
79009;SDS011;73031;44.726;37.760;2023-11-21T00:51:34;7.57;;;4.70;;
79009;SDS011;73031;44.726;37.760;2023-11-21T00:52:36;6.32;;;4.13;;
79009;SDS011;73031;44.726;37.760;2023-11-21T00:53:37;7.07;;;4.40;;
79009;SDS011;73031;44.726;37.760;2023-11-21T00:54:38;7.57;;;4.30;;
79009;SDS011;73031;44.726;37.760;2023-11-21T00:55:40;6.65;;;4.20;;
79009;SDS011;73031;44.726;37.760;2023-11-21T00:56:41;6.78;;;3.95;;
79009;SDS011;73031;44.726;37.760;2023-11-21T00:57:42;6.85;;;3.90;;
79009;SDS011;73031;44.726;37.760;2023-11-21T00:58:43;7.93;;;4.53;;
79009;SDS011;73031;44.726;37.760;2023-11-21T00:59:44;8.25;;;4.30;;
79009;SDS011;73031;44.726;37.760;2023-11-21T01:00:45;6.53;;;4.00;;
79009;SDS011;73031;44.726;37.760;2023-11-21T01:01:49;6.57;;;4.03;;
79009;SDS011;73031;44.726;37.760;2023-11-21T01:02:50;8.15;;;4.18;;
79009;SDS011;73031;44.726;37.760;2023-11-21T01:03:52;6.63;;;4.20;;
79009;SDS011;73031;44.726;37.760;2023-11-21T01:04:54;6.38;;;3.70;;
79009;SDS011;73031;44.726;37.760;2023-11-21T01:05:55;7.38;;;4.32;;
79009;SDS011;73031;44.726;37.760;2023-11-21T01:06:56;6.63;;;4.10;;
79009;SDS011;73031;44.726;37.760;2023-11-21T01:07:57;7.57;;;4.43;;
79009;SDS011;73031;44.726;37.760;2023-11-21T01:08:58;6.72;;;4.22;;
79009;SDS011;73031;44.726;37.760;2023-11-21T01:09:59;6.20;;;4.10;;
79009;SDS011;73031;44.726;37.760;2023-11-21T01:11:00;7.47;;;4.43;;
79009;SDS011;73031;44.726;37.760;2023-11-21T01:12:01;8.00;;;4.63;;
79009;SDS011;73031;44.726;37.760;2023-11-21T01:13:03;7.32;;;4.30;;
79009;SDS011;73031;44.726;37.760;2023-11-21T01:14:07;8.00;;;4.53;;
79009;SDS011;73031;44.726;37.760;2023-11-21T01:15:09;7.45;;;4.50;;
79009;SDS011;73031;44.726;37.760;2023-11-21T01:16:12;8.10;;;4.78;;
79009;SDS011;73031;44.726;37.760;2023-11-21T01:17:13;7.35;;;4.40;;
79009;SDS011;73031;44.726;37.760;2023-11-21T01:18:14;6.97;;;4.68;;
79009;SDS011;73031;44.726;37.760;2023-11-21T01:19:15;7.18;;;3.70;;
79009;SDS011;73031;44.726;37.760;2023-11-21T01:20:16;7.40;;;4.35;;
79009;SDS011;73031;44.726;37.760;2023-11-21T01:21:17;8.00;;;4.68;;
79009;SDS011;73031;44.726;37.760;2023-11-21T01:22:18;7.15;;;4.70;;
79009;SDS011;73031;44.726;37.760;2023-11-21T01:23:26;7.38;;;4.40;;
79009;SDS011;73031;44.726;37.760;2023-11-21T01:24:27;8.15;;;4.60;;
79009;SDS011;73031;44.726;37.760;2023-11-21T01:25:28;8.02;;;4.47;;
79009;SDS011;73031;44.726;37.760;2023-11-21T01:26:29;7.45;;;4.53;;
79009;SDS011;73031;44.726;37.760;2023-11-21T01:27:30;7.30;;;4.18;;
79009;SDS011;73031;44.726;37.760;2023-11-21T01:28:31;7.00;;;4.75;;
79009;SDS011;73031;44.726;37.760;2023-11-21T01:29:32;7.68;;;4.47;;
79009;SDS011;73031;44.726;37.760;2023-11-21T01:30:34;6.95;;;4.47;;
79009;SDS011;73031;44.726;37.760;2023-11-21T01:31:36;7.63;;;4.82;;
79009;SDS011;73031;44.726;37.760;2023-11-21T01:32:37;8.13;;;4.95;;
79009;SDS011;73031;44.726;37.760;2023-11-21T01:33:38;7.95;;;4.65;;
79009;SDS011;73031;44.726;37.760;2023-11-21T01:34:39;7.72;;;4.55;;
79009;SDS011;73031;44.726;37.760;2023-11-21T01:35:40;7.63;;;4.53;;
79009;SDS011;73031;44.726;37.760;2023-11-21T01:36:41;8.15;;;5.07;;
79009;SDS011;73031;44.726;37.760;2023-11-21T01:37:42;8.00;;;4.93;;
79009;SDS011;73031;44.726;37.760;2023-11-21T01:38:43;6.97;;;4.25;;
79009;SDS011;73031;44.726;37.760;2023-11-21T01:39:44;7.40;;;4.30;;
79009;SDS011;73031;44.726;37.760;2023-11-21T01:40:45;8.25;;;4.88;;
79009;SDS011;73031;44.726;37.760;2023-11-21T01:41:46;7.68;;;4.80;;
79009;SDS011;73031;44.726;37.760;2023-11-21T01:42:47;7.82;;;4.70;;
79009;SDS011;73031;44.726;37.760;2023-11-21T01:43:48;7.82;;;4.88;;
79009;SDS011;73031;44.726;37.760;2023-11-21T01:44:49;8.95;;;4.97;;
79009;SDS011;73031;44.726;37.760;2023-11-21T01:45:50;8.48;;;4.65;;
79009;SDS011;73031;44.726;37.760;2023-11-21T01:46:52;8.57;;;5.20;;
79009;SDS011;73031;44.726;37.760;2023-11-21T01:47:54;8.05;;;4.90;;
79009;SDS011;73031;44.726;37.760;2023-11-21T01:48:56;7.53;;;4.93;;
79009;SDS011;73031;44.726;37.760;2023-11-21T01:49:57;8.13;;;4.82;;
79009;SDS011;73031;44.726;37.760;2023-11-21T01:50:59;8.63;;;4.90;;
79009;SDS011;73031;44.726;37.760;2023-11-21T01:52:01;9.65;;;4.78;;
79009;SDS011;73031;44.726;37.760;2023-11-21T01:53:03;7.20;;;4.57;;
79009;SDS011;73031;44.726;37.760;2023-11-21T01:54:04;8.35;;;4.32;;
79009;SDS011;73031;44.726;37.760;2023-11-21T01:55:06;7.90;;;4.80;;
79009;SDS011;73031;44.726;37.760;2023-11-21T01:56:09;7.90;;;4.65;;
79009;SDS011;73031;44.726;37.760;2023-11-21T01:57:10;8.52;;;5.15;;
79009;SDS011;73031;44.726;37.760;2023-11-21T01:58:12;7.57;;;4.90;;
79009;SDS011;73031;44.726;37.760;2023-11-21T01:59:18;8.93;;;4.88;;
79009;SDS011;73031;44.726;37.760;2023-11-21T02:00:22;8.43;;;5.07;;
79009;SDS011;73031;44.726;37.760;2023-11-21T02:01:24;7.53;;;4.72;;
79009;SDS011;73031;44.726;37.760;2023-11-21T02:02:26;8.23;;;4.95;;
79009;SDS011;73031;44.726;37.760;2023-11-21T02:03:28;8.40;;;4.47;;
79009;SDS011;73031;44.726;37.760;2023-11-21T02:04:29;8.35;;;5.00;;
79009;SDS011;73031;44.726;37.760;2023-11-21T02:05:30;7.63;;;4.45;;
79009;SDS011;73031;44.726;37.760;2023-11-21T02:06:32;8.95;;;4.82;;
79009;SDS011;73031;44.726;37.760;2023-11-21T02:07:34;8.05;;;5.00;;
79009;SDS011;73031;44.726;37.760;2023-11-21T02:08:36;7.50;;;4.47;;
79009;SDS011;73031;44.726;37.760;2023-11-21T02:09:38;7.53;;;4.28;;
79009;SDS011;73031;44.726;37.760;2023-11-21T02:10:43;7.53;;;4.60;;
79009;SDS011;73031;44.726;37.760;2023-11-21T02:11:44;7.75;;;4.25;;
79009;SDS011;73031;44.726;37.760;2023-11-21T02:12:45;8.55;;;5.22;;
79009;SDS011;73031;44.726;37.760;2023-11-21T02:13:46;8.18;;;4.97;;
79009;SDS011;73031;44.726;37.760;2023-11-21T02:14:50;7.88;;;4.53;;
79009;SDS011;73031;44.726;37.760;2023-11-21T02:15:51;8.00;;;5.07;;
79009;SDS011;73031;44.726;37.760;2023-11-21T02:16:55;8.40;;;5.15;;
79009;SDS011;73031;44.726;37.760;2023-11-21T02:17:57;8.60;;;4.95;;
79009;SDS011;73031;44.726;37.760;2023-11-21T02:18:59;8.25;;;4.93;;
79009;SDS011;73031;44.726;37.760;2023-11-21T02:20:02;7.97;;;4.35;;
79009;SDS011;73031;44.726;37.760;2023-11-21T02:21:04;8.00;;;5.00;;
79009;SDS011;73031;44.726;37.760;2023-11-21T02:22:05;7.40;;;4.60;;
79009;SDS011;73031;44.726;37.760;2023-11-21T02:23:07;7.25;;;4.70;;
79009;SDS011;73031;44.726;37.760;2023-11-21T02:24:09;8.82;;;5.30;;
79009;SDS011;73031;44.726;37.760;2023-11-21T02:25:10;7.88;;;5.05;;
79009;SDS011;73031;44.726;37.760;2023-11-21T02:26:12;8.15;;;4.60;;
79009;SDS011;73031;44.726;37.760;2023-11-21T02:27:14;9.23;;;4.95;;
79009;SDS011;73031;44.726;37.760;2023-11-21T02:28:21;7.68;;;5.00;;
79009;SDS011;73031;44.726;37.760;2023-11-21T02:29:29;8.05;;;4.97;;
79009;SDS011;73031;44.726;37.760;2023-11-21T02:30:31;7.63;;;4.55;;
79009;SDS011;73031;44.726;37.760;2023-11-21T02:31:36;7.32;;;4.53;;
79009;SDS011;73031;44.726;37.760;2023-11-21T02:32:49;7.72;;;5.05;;
79009;SDS011;73031;44.726;37.760;2023-11-21T02:33:53;8.30;;;4.93;;
79009;SDS011;73031;44.726;37.760;2023-11-21T02:34:54;8.15;;;4.72;;
79009;SDS011;73031;44.726;37.760;2023-11-21T02:35:56;8.52;;;5.43;;
79009;SDS011;73031;44.726;37.760;2023-11-21T02:36:57;8.48;;;5.50;;
79009;SDS011;73031;44.726;37.760;2023-11-21T02:37:59;8.32;;;4.68;;
79009;SDS011;73031;44.726;37.760;2023-11-21T02:39:02;9.85;;;4.93;;
79009;SDS011;73031;44.726;37.760;2023-11-21T02:40:04;7.57;;;4.45;;
79009;SDS011;73031;44.726;37.760;2023-11-21T02:41:10;8.65;;;5.20;;
79009;SDS011;73031;44.726;37.760;2023-11-21T02:42:11;8.23;;;5.05;;
79009;SDS011;73031;44.726;37.760;2023-11-21T02:43:12;7.90;;;4.95;;
79009;SDS011;73031;44.726;37.760;2023-11-21T02:44:14;9.10;;;4.93;;
79009;SDS011;73031;44.726;37.760;2023-11-21T02:45:15;9.95;;;5.07;;
79009;SDS011;73031;44.726;37.760;2023-11-21T02:46:17;7.85;;;5.20;;
79009;SDS011;73031;44.726;37.760;2023-11-21T02:47:18;8.55;;;5.15;;
79009;SDS011;73031;44.726;37.760;2023-11-21T02:48:19;8.95;;;5.63;;
79009;SDS011;73031;44.726;37.760;2023-11-21T02:49:21;9.05;;;5.60;;
79009;SDS011;73031;44.726;37.760;2023-11-21T02:50:22;8.40;;;5.25;;
79009;SDS011;73031;44.726;37.760;2023-11-21T02:51:23;7.70;;;5.13;;
79009;SDS011;73031;44.726;37.760;2023-11-21T02:52:25;9.85;;;5.28;;
79009;SDS011;73031;44.726;37.760;2023-11-21T02:53:26;8.77;;;5.03;;
79009;SDS011;73031;44.726;37.760;2023-11-21T02:54:27;9.60;;;5.18;;
79009;SDS011;73031;44.726;37.760;2023-11-21T02:55:28;8.32;;;5.30;;
79009;SDS011;73031;44.726;37.760;2023-11-21T02:56:31;8.65;;;5.47;;
79009;SDS011;73031;44.726;37.760;2023-11-21T02:57:33;8.02;;;5.05;;
79009;SDS011;73031;44.726;37.760;2023-11-21T02:58:34;9.32;;;5.70;;
79009;SDS011;73031;44.726;37.760;2023-11-21T02:59:36;8.45;;;5.20;;
79009;SDS011;73031;44.726;37.760;2023-11-21T03:00:37;9.48;;;5.15;;
79009;SDS011;73031;44.726;37.760;2023-11-21T03:01:40;7.50;;;4.28;;
79009;SDS011;73031;44.726;37.760;2023-11-21T03:02:42;8.38;;;4.95;;
79009;SDS011;73031;44.726;37.760;2023-11-21T03:03:44;8.55;;;5.43;;
79009;SDS011;73031;44.726;37.760;2023-11-21T03:04:46;8.35;;;5.05;;
79009;SDS011;73031;44.726;37.760;2023-11-21T03:05:49;7.60;;;4.55;;
79009;SDS011;73031;44.726;37.760;2023-11-21T03:06:51;9.20;;;5.75;;
79009;SDS011;73031;44.726;37.760;2023-11-21T03:07:52;9.32;;;5.85;;
79009;SDS011;73031;44.726;37.760;2023-11-21T03:08:53;8.30;;;5.38;;
79009;SDS011;73031;44.726;37.760;2023-11-21T03:09:54;8.75;;;5.45;;
79009;SDS011;73031;44.726;37.760;2023-11-21T03:10:55;9.50;;;5.60;;
79009;SDS011;73031;44.726;37.760;2023-11-21T03:11:57;8.02;;;4.85;;
79009;SDS011;73031;44.726;37.760;2023-11-21T03:12:58;9.57;;;5.78;;
79009;SDS011;73031;44.726;37.760;2023-11-21T03:13:59;8.52;;;5.35;;
79009;SDS011;73031;44.726;37.760;2023-11-21T03:15:00;8.27;;;5.20;;
79009;SDS011;73031;44.726;37.760;2023-11-21T03:16:02;9.18;;;5.32;;
79009;SDS011;73031;44.726;37.760;2023-11-21T03:17:04;8.20;;;5.60;;
79009;SDS011;73031;44.726;37.760;2023-11-21T03:18:05;7.75;;;4.90;;
79009;SDS011;73031;44.726;37.760;2023-11-21T03:19:07;8.55;;;5.60;;
79009;SDS011;73031;44.726;37.760;2023-11-21T03:20:09;8.77;;;5.15;;
79009;SDS011;73031;44.726;37.760;2023-11-21T03:21:11;8.48;;;5.07;;
79009;SDS011;73031;44.726;37.760;2023-11-21T03:22:13;8.45;;;5.13;;
79009;SDS011;73031;44.726;37.760;2023-11-21T03:23:15;8.25;;;5.07;;
79009;SDS011;73031;44.726;37.760;2023-11-21T03:24:16;8.38;;;5.50;;
79009;SDS011;73031;44.726;37.760;2023-11-21T03:25:18;8.45;;;5.50;;
79009;SDS011;73031;44.726;37.760;2023-11-21T03:26:19;9.45;;;5.20;;
79009;SDS011;73031;44.726;37.760;2023-11-21T03:27:20;8.80;;;5.78;;
79009;SDS011;73031;44.726;37.760;2023-11-21T03:28:22;8.77;;;5.88;;
79009;SDS011;73031;44.726;37.760;2023-11-21T03:29:25;14.27;;;5.05;;
79009;SDS011;73031;44.726;37.760;2023-11-21T03:30:26;18.50;;;11.23;;
79009;SDS011;73031;44.726;37.760;2023-11-21T03:31:27;9.70;;;5.60;;
79009;SDS011;73031;44.726;37.760;2023-11-21T03:32:28;11.98;;;6.35;;
79009;SDS011;73031;44.726;37.760;2023-11-21T03:33:29;10.52;;;6.43;;
79009;SDS011;73031;44.726;37.760;2023-11-21T03:34:31;13.68;;;6.30;;
79009;SDS011;73031;44.726;37.760;2023-11-21T03:35:32;11.45;;;6.18;;
79009;SDS011;73031;44.726;37.760;2023-11-21T03:36:33;12.32;;;6.10;;
79009;SDS011;73031;44.726;37.760;2023-11-21T03:37:34;12.90;;;5.63;;
79009;SDS011;73031;44.726;37.760;2023-11-21T03:38:36;10.50;;;5.88;;
79009;SDS011;73031;44.726;37.760;2023-11-21T03:39:38;11.77;;;6.28;;
79009;SDS011;73031;44.726;37.760;2023-11-21T03:40:39;10.60;;;6.30;;
79009;SDS011;73031;44.726;37.760;2023-11-21T03:41:41;9.27;;;6.10;;
79009;SDS011;73031;44.726;37.760;2023-11-21T03:42:42;12.35;;;6.50;;
79009;SDS011;73031;44.726;37.760;2023-11-21T03:43:44;13.80;;;7.03;;
79009;SDS011;73031;44.726;37.760;2023-11-21T03:44:45;10.98;;;6.10;;
79009;SDS011;73031;44.726;37.760;2023-11-21T03:45:47;13.32;;;6.88;;
79009;SDS011;73031;44.726;37.760;2023-11-21T03:46:49;13.35;;;6.55;;
79009;SDS011;73031;44.726;37.760;2023-11-21T03:47:50;10.75;;;6.22;;
79009;SDS011;73031;44.726;37.760;2023-11-21T03:48:51;12.25;;;6.80;;
79009;SDS011;73031;44.726;37.760;2023-11-21T03:49:52;11.88;;;6.40;;
79009;SDS011;73031;44.726;37.760;2023-11-21T03:50:53;10.52;;;6.35;;
79009;SDS011;73031;44.726;37.760;2023-11-21T03:51:54;12.98;;;6.57;;
79009;SDS011;73031;44.726;37.760;2023-11-21T03:52:56;13.32;;;6.72;;
79009;SDS011;73031;44.726;37.760;2023-11-21T03:53:57;9.82;;;6.35;;
79009;SDS011;73031;44.726;37.760;2023-11-21T03:54:58;11.93;;;6.45;;
79009;SDS011;73031;44.726;37.760;2023-11-21T03:55:59;13.25;;;6.60;;
79009;SDS011;73031;44.726;37.760;2023-11-21T03:57:04;13.32;;;5.97;;
79009;SDS011;73031;44.726;37.760;2023-11-21T03:58:05;10.85;;;5.82;;
79009;SDS011;73031;44.726;37.760;2023-11-21T03:59:06;11.02;;;6.32;;
79009;SDS011;73031;44.726;37.760;2023-11-21T04:00:08;12.48;;;5.88;;
79009;SDS011;73031;44.726;37.760;2023-11-21T04:01:10;17.75;;;6.05;;
79009;SDS011;73031;44.726;37.760;2023-11-21T04:02:11;12.23;;;5.45;;
79009;SDS011;73031;44.726;37.760;2023-11-21T04:03:12;9.57;;;5.90;;
79009;SDS011;73031;44.726;37.760;2023-11-21T04:04:14;16.10;;;5.85;;
79009;SDS011;73031;44.726;37.760;2023-11-21T04:05:15;10.23;;;6.57;;
79009;SDS011;73031;44.726;37.760;2023-11-21T04:06:17;10.70;;;6.53;;
79009;SDS011;73031;44.726;37.760;2023-11-21T04:07:18;10.90;;;6.32;;
79009;SDS011;73031;44.726;37.760;2023-11-21T04:08:19;13.73;;;6.50;;
79009;SDS011;73031;44.726;37.760;2023-11-21T04:09:20;11.73;;;6.38;;
79009;SDS011;73031;44.726;37.760;2023-11-21T04:10:21;11.05;;;6.50;;
79009;SDS011;73031;44.726;37.760;2023-11-21T04:11:22;11.70;;;6.05;;
79009;SDS011;73031;44.726;37.760;2023-11-21T04:12:23;10.75;;;6.50;;
79009;SDS011;73031;44.726;37.760;2023-11-21T04:13:24;11.60;;;5.90;;
79009;SDS011;73031;44.726;37.760;2023-11-21T04:14:25;13.25;;;7.07;;
79009;SDS011;73031;44.726;37.760;2023-11-21T04:15:26;12.48;;;5.97;;
79009;SDS011;73031;44.726;37.760;2023-11-21T04:16:27;12.98;;;7.38;;
79009;SDS011;73031;44.726;37.760;2023-11-21T04:17:28;10.60;;;6.43;;
79009;SDS011;73031;44.726;37.760;2023-11-21T04:18:29;14.77;;;6.40;;
79009;SDS011;73031;44.726;37.760;2023-11-21T04:19:30;13.30;;;6.43;;
79009;SDS011;73031;44.726;37.760;2023-11-21T04:20:31;12.65;;;6.70;;
79009;SDS011;73031;44.726;37.760;2023-11-21T04:21:32;13.15;;;6.85;;
79009;SDS011;73031;44.726;37.760;2023-11-21T04:22:33;9.77;;;6.28;;
79009;SDS011;73031;44.726;37.760;2023-11-21T04:23:36;10.15;;;6.25;;
79009;SDS011;73031;44.726;37.760;2023-11-21T04:24:37;10.45;;;5.85;;
79009;SDS011;73031;44.726;37.760;2023-11-21T04:25:38;10.55;;;5.13;;
79009;SDS011;73031;44.726;37.760;2023-11-21T04:26:39;9.70;;;5.70;;
79009;SDS011;73031;44.726;37.760;2023-11-21T04:27:41;11.90;;;6.10;;
79009;SDS011;73031;44.726;37.760;2023-11-21T04:29:46;10.07;;;6.13;;
79009;SDS011;73031;44.726;37.760;2023-11-21T04:30:47;10.45;;;5.25;;
79009;SDS011;73031;44.726;37.760;2023-11-21T04:31:48;9.55;;;5.53;;
79009;SDS011;73031;44.726;37.760;2023-11-21T04:32:49;12.18;;;6.35;;
79009;SDS011;73031;44.726;37.760;2023-11-21T04:33:51;10.25;;;6.15;;
79009;SDS011;73031;44.726;37.760;2023-11-21T04:34:52;11.23;;;6.75;;
79009;SDS011;73031;44.726;37.760;2023-11-21T04:35:53;11.27;;;6.18;;
79009;SDS011;73031;44.726;37.760;2023-11-21T04:36:54;9.75;;;6.13;;
79009;SDS011;73031;44.726;37.760;2023-11-21T04:37:55;12.32;;;6.15;;
79009;SDS011;73031;44.726;37.760;2023-11-21T04:38:57;11.20;;;6.53;;
79009;SDS011;73031;44.726;37.760;2023-11-21T04:39:59;12.05;;;5.43;;
79009;SDS011;73031;44.726;37.760;2023-11-21T04:41:00;10.07;;;5.93;;
79009;SDS011;73031;44.726;37.760;2023-11-21T04:42:01;8.88;;;5.53;;
79009;SDS011;73031;44.726;37.760;2023-11-21T04:43:02;11.02;;;6.15;;
79009;SDS011;73031;44.726;37.760;2023-11-21T04:44:05;10.57;;;6.28;;
79009;SDS011;73031;44.726;37.760;2023-11-21T04:45:07;10.63;;;6.00;;
79009;SDS011;73031;44.726;37.760;2023-11-21T04:46:12;9.05;;;5.72;;
79009;SDS011;73031;44.726;37.760;2023-11-21T04:47:13;10.00;;;5.43;;
79009;SDS011;73031;44.726;37.760;2023-11-21T04:48:14;9.52;;;6.10;;
79009;SDS011;73031;44.726;37.760;2023-11-21T04:49:15;11.02;;;6.30;;
79009;SDS011;73031;44.726;37.760;2023-11-21T04:50:16;10.95;;;6.60;;
79009;SDS011;73031;44.726;37.760;2023-11-21T04:51:17;10.10;;;6.20;;
79009;SDS011;73031;44.726;37.760;2023-11-21T04:52:18;10.05;;;5.65;;
79009;SDS011;73031;44.726;37.760;2023-11-21T04:53:20;12.30;;;6.32;;
79009;SDS011;73031;44.726;37.760;2023-11-21T04:54:21;11.15;;;6.00;;
79009;SDS011;73031;44.726;37.760;2023-11-21T04:55:22;10.07;;;5.97;;
79009;SDS011;73031;44.726;37.760;2023-11-21T04:56:23;13.10;;;6.28;;
79009;SDS011;73031;44.726;37.760;2023-11-21T04:57:25;10.98;;;6.85;;
79009;SDS011;73031;44.726;37.760;2023-11-21T04:58:26;9.85;;;6.32;;
79009;SDS011;73031;44.726;37.760;2023-11-21T04:59:27;10.15;;;6.00;;
79009;SDS011;73031;44.726;37.760;2023-11-21T05:00:28;10.57;;;6.07;;
79009;SDS011;73031;44.726;37.760;2023-11-21T05:01:29;10.95;;;6.00;;
79009;SDS011;73031;44.726;37.760;2023-11-21T05:02:30;12.00;;;6.40;;
79009;SDS011;73031;44.726;37.760;2023-11-21T05:03:31;11.07;;;6.13;;
79009;SDS011;73031;44.726;37.760;2023-11-21T05:04:32;10.35;;;6.05;;
79009;SDS011;73031;44.726;37.760;2023-11-21T05:05:34;11.45;;;6.10;;
79009;SDS011;73031;44.726;37.760;2023-11-21T05:06:35;10.77;;;6.68;;
79009;SDS011;73031;44.726;37.760;2023-11-21T05:07:36;10.85;;;6.20;;
79009;SDS011;73031;44.726;37.760;2023-11-21T05:08:37;11.68;;;6.60;;
79009;SDS011;73031;44.726;37.760;2023-11-21T05:09:42;11.57;;;6.22;;
79009;SDS011;73031;44.726;37.760;2023-11-21T05:10:44;11.63;;;6.45;;
79009;SDS011;73031;44.726;37.760;2023-11-21T05:11:45;11.35;;;6.45;;
79009;SDS011;73031;44.726;37.760;2023-11-21T05:12:46;11.00;;;6.43;;
79009;SDS011;73031;44.726;37.760;2023-11-21T05:13:47;11.40;;;6.40;;
79009;SDS011;73031;44.726;37.760;2023-11-21T05:14:49;11.20;;;6.63;;
79009;SDS011;73031;44.726;37.760;2023-11-21T05:15:50;11.18;;;6.07;;
79009;SDS011;73031;44.726;37.760;2023-11-21T05:16:51;10.90;;;6.38;;
79009;SDS011;73031;44.726;37.760;2023-11-21T05:17:52;9.45;;;5.78;;
79009;SDS011;73031;44.726;37.760;2023-11-21T05:18:54;9.95;;;6.13;;
79009;SDS011;73031;44.726;37.760;2023-11-21T05:20:00;11.35;;;6.60;;
79009;SDS011;73031;44.726;37.760;2023-11-21T05:21:04;11.52;;;6.30;;
79009;SDS011;73031;44.726;37.760;2023-11-21T05:22:05;12.65;;;6.65;;
79009;SDS011;73031;44.726;37.760;2023-11-21T05:23:06;11.95;;;6.75;;
79009;SDS011;73031;44.726;37.760;2023-11-21T05:24:08;13.30;;;5.88;;
79009;SDS011;73031;44.726;37.760;2023-11-21T05:25:10;11.30;;;6.05;;
79009;SDS011;73031;44.726;37.760;2023-11-21T05:26:11;10.52;;;6.00;;
79009;SDS011;73031;44.726;37.760;2023-11-21T05:27:12;10.77;;;6.03;;
79009;SDS011;73031;44.726;37.760;2023-11-21T05:28:23;9.68;;;5.60;;
79009;SDS011;73031;44.726;37.760;2023-11-21T05:29:27;10.52;;;5.75;;
79009;SDS011;73031;44.726;37.760;2023-11-21T05:30:28;9.55;;;5.80;;
79009;SDS011;73031;44.726;37.760;2023-11-21T05:31:29;14.73;;;6.63;;
79009;SDS011;73031;44.726;37.760;2023-11-21T05:32:31;11.13;;;6.30;;
79009;SDS011;73031;44.726;37.760;2023-11-21T05:33:35;12.02;;;6.68;;
79009;SDS011;73031;44.726;37.760;2023-11-21T05:34:36;12.48;;;6.03;;
79009;SDS011;73031;44.726;37.760;2023-11-21T05:35:37;13.32;;;6.28;;
79009;SDS011;73031;44.726;37.760;2023-11-21T05:36:37;10.45;;;6.60;;
79009;SDS011;73031;44.726;37.760;2023-11-21T05:37:38;11.88;;;6.70;;
79009;SDS011;73031;44.726;37.760;2023-11-21T05:38:40;11.15;;;6.28;;
79009;SDS011;73031;44.726;37.760;2023-11-21T05:39:42;11.45;;;6.05;;
79009;SDS011;73031;44.726;37.760;2023-11-21T05:40:43;10.80;;;6.60;;
79009;SDS011;73031;44.726;37.760;2023-11-21T05:41:44;11.07;;;5.85;;
79009;SDS011;73031;44.726;37.760;2023-11-21T05:42:46;11.63;;;6.18;;
79009;SDS011;73031;44.726;37.760;2023-11-21T05:43:47;12.27;;;6.85;;
79009;SDS011;73031;44.726;37.760;2023-11-21T05:44:48;12.82;;;5.80;;
79009;SDS011;73031;44.726;37.760;2023-11-21T05:45:49;14.98;;;6.63;;
79009;SDS011;73031;44.726;37.760;2023-11-21T05:46:51;11.77;;;6.47;;
79009;SDS011;73031;44.726;37.760;2023-11-21T05:47:52;12.30;;;6.72;;
79009;SDS011;73031;44.726;37.760;2023-11-21T05:48:53;12.82;;;6.38;;
79009;SDS011;73031;44.726;37.760;2023-11-21T05:49:55;15.05;;;7.28;;
79009;SDS011;73031;44.726;37.760;2023-11-21T05:50:56;13.75;;;6.97;;
79009;SDS011;73031;44.726;37.760;2023-11-21T05:51:57;12.68;;;7.00;;
79009;SDS011;73031;44.726;37.760;2023-11-21T05:52:58;12.35;;;6.68;;
79009;SDS011;73031;44.726;37.760;2023-11-21T05:54:02;13.45;;;6.90;;
79009;SDS011;73031;44.726;37.760;2023-11-21T05:55:03;11.25;;;6.68;;
79009;SDS011;73031;44.726;37.760;2023-11-21T05:56:08;15.05;;;7.40;;
79009;SDS011;73031;44.726;37.760;2023-11-21T05:57:09;16.02;;;8.15;;
79009;SDS011;73031;44.726;37.760;2023-11-21T05:58:10;15.27;;;8.27;;
79009;SDS011;73031;44.726;37.760;2023-11-21T05:59:11;18.10;;;10.35;;
79009;SDS011;73031;44.726;37.760;2023-11-21T06:00:12;21.42;;;11.40;;
79009;SDS011;73031;44.726;37.760;2023-11-21T06:01:25;20.25;;;10.85;;
79009;SDS011;73031;44.726;37.760;2023-11-21T06:02:29;21.50;;;11.15;;
79009;SDS011;73031;44.726;37.760;2023-11-21T06:03:31;22.70;;;11.52;;
79009;SDS011;73031;44.726;37.760;2023-11-21T06:04:32;22.63;;;12.18;;